Time;durP1;ratioP1;P1;durP2;ratioP2;P2;SDS_P1;SDS_P2;PMS_P1;PMS_P2;Temp;Humidity;BMP_temperature;BMP_pressure;BME280_temperature;BME280_humidity;BME280_pressure;Samples;Min_cycle;Max_cycle;Signal;HPM_P1;HPM_P2
2022/05/11 00:01:54;;;;;;;0.47;0.20;;;14.10;99.90;;;;;;5074230;28;20074;-78
2022/05/11 00:04:20;;;;;;;0.57;0.25;;;14.00;99.90;;;;;;5072628;28;20111;-79
2022/05/11 00:06:45;;;;;;;0.17;0.17;;;14.10;99.90;;;;;;5072836;28;20029;-78
2022/05/11 00:09:13;;;;;;;0.30;0.20;;;14.10;99.90;;;;;;5072682;28;20059;-78
2022/05/11 00:11:40;;;;;;;0.40;0.20;;;14.00;99.90;;;;;;5055782;28;20020;-78
2022/05/11 00:14:06;;;;;;;0.28;0.20;;;14.00;99.90;;;;;;5074128;28;20040;-78
2022/05/11 00:16:33;;;;;;;0.80;0.30;;;14.00;99.90;;;;;;5073967;28;20043;-78
2022/05/11 00:18:59;;;;;;;0.30;0.20;;;14.00;99.90;;;;;;5072468;28;20452;-78
2022/05/11 00:21:25;;;;;;;0.50;0.20;;;14.00;99.90;;;;;;5055638;28;20085;-78
2022/05/11 00:23:52;;;;;;;0.57;0.30;;;13.90;99.90;;;;;;5073427;28;20021;-79
2022/05/11 00:26:18;;;;;;;0.43;0.20;;;13.90;99.90;;;;;;5073482;28;20036;-78
2022/05/11 00:28:44;;;;;;;0.32;0.20;;;13.90;99.90;;;;;;5072334;28;20025;-78
2022/05/11 00:31:09;;;;;;;0.35;0.20;;;13.90;99.90;;;;;;5073806;28;20039;-78
2022/05/11 00:33:36;;;;;;;0.52;0.22;;;13.90;99.90;;;;;;5072191;28;20049;-78
2022/05/11 00:36:03;;;;;;;0.28;0.20;;;13.80;99.90;;;;;;5073483;28;20357;-79
2022/05/11 00:38:29;;;;;;;0.45;0.20;;;13.80;99.90;;;;;;5072060;28;20052;-79
2022/05/11 00:40:59;;;;;;;0.20;0.20;;;13.80;99.90;;;;;;5073211;28;20035;-79
2022/05/11 00:43:40;;;;;;;0.40;0.20;;;13.80;99.90;;;;;;5073258;28;20025;-79
2022/05/11 00:46:11;;;;;;;0.40;0.23;;;13.80;99.90;;;;;;5073149;28;20028;-79
2022/05/11 00:51:28;;;;;;;0.60;0.28;;;13.80;99.90;;;;;;5073604;28;20198;-78
2022/05/11 00:53:54;;;;;;;0.63;0.30;;;13.80;99.90;;;;;;5073126;28;20021;-79
2022/05/11 00:56:23;;;;;;;0.20;0.20;;;13.70;99.90;;;;;;5056408;28;20457;-79
2022/05/11 00:58:57;;;;;;;0.43;0.20;;;13.80;99.90;;;;;;5076438;28;20012;-79
2022/05/11 01:01:24;;;;;;;0.60;0.30;;;13.70;99.90;;;;;;5077491;28;20028;-79
2022/05/11 01:04:00;;;;;;;0.82;0.30;;;13.70;99.90;;;;;;5077023;28;20463;-78
2022/05/11 01:06:27;;;;;;;0.25;0.20;;;13.70;99.90;;;;;;5077413;28;20048;-79
2022/05/11 01:08:53;;;;;;;0.45;0.20;;;13.70;99.90;;;;;;5075267;28;20029;-79
2022/05/11 01:11:19;;;;;;;0.70;0.30;;;13.70;99.90;;;;;;5076905;28;20067;-79
2022/05/11 01:13:46;;;;;;;0.17;0.13;;;13.70;99.90;;;;;;5077122;28;20423;-79
2022/05/11 01:16:12;;;;;;;0.63;0.30;;;13.70;99.90;;;;;;5077282;28;20029;-79
2022/05/11 01:18:40;;;;;;;0.47;0.20;;;13.70;99.90;;;;;;5077501;28;20124;-79
2022/05/11 01:21:07;;;;;;;0.40;0.20;;;13.70;99.90;;;;;;5084586;28;20470;-79
2022/05/11 01:23:38;;;;;;;0.73;0.30;;;13.70;99.90;;;;;;5083706;28;20564;-78
2022/05/11 01:26:04;;;;;;;;;;;13.70;99.90;;;;;;5081859;28;20029;-79
2022/05/11 01:28:30;;;;;;;0.40;0.20;;;13.70;99.90;;;;;;5076039;28;20375;-79
2022/05/11 01:31:06;;;;;;;0.43;0.20;;;13.60;99.90;;;;;;5076813;28;20017;-79
2022/05/11 01:33:33;;;;;;;0.45;0.20;;;13.70;99.90;;;;;;5078668;28;20048;-79
2022/05/11 01:36:18;;;;;;;0.63;0.30;;;13.70;99.90;;;;;;5078580;28;20025;-79
2022/05/11 01:38:46;;;;;;;0.60;0.30;;;13.60;99.90;;;;;;5077163;28;20082;-79
2022/05/11 01:41:31;;;;;;;0.55;0.20;;;13.60;99.90;;;;;;5076646;28;20028;-79
2022/05/11 01:43:58;;;;;;;0.28;0.20;;;13.60;99.90;;;;;;5075081;28;20013;-79
2022/05/11 01:46:24;;;;;;;0.55;0.25;;;13.60;99.90;;;;;;5076659;28;20111;-79
2022/05/11 01:48:49;;;;;;;0.65;0.30;;;13.60;99.90;;;;;;5076698;28;20059;-78
2022/05/11 01:51:17;;;;;;;0.20;0.20;;;13.60;99.90;;;;;;5075801;28;20095;-78
2022/05/11 01:53:44;;;;;;;0.20;0.20;;;13.60;99.90;;;;;;5075492;28;20070;-78
2022/05/11 01:56:09;;;;;;;0.25;0.20;;;13.60;99.90;;;;;;5074688;28;20025;-78
2022/05/11 01:58:36;;;;;;;0.80;0.47;;;13.60;99.90;;;;;;5075286;28;20048;-79
2022/05/11 02:01:02;;;;;;;0.68;0.43;;;13.60;99.90;;;;;;5074473;28;20044;-78
2022/05/11 02:03:28;;;;;;;0.40;0.20;;;13.60;99.90;;;;;;5075727;28;20031;-79
2022/05/11 02:08:40;;;;;;;0.40;0.20;;;13.60;99.90;;;;;;5075496;28;20035;-79
2022/05/11 02:11:07;;;;;;;0.88;0.30;;;13.60;99.90;;;;;;5058019;28;20158;-78
2022/05/11 02:13:33;;;;;;;0.30;0.20;;;13.60;99.90;;;;;;5074073;28;20025;-78
2022/05/11 02:15:59;;;;;;;0.63;0.30;;;13.50;99.90;;;;;;5075523;28;20398;-79
2022/05/11 02:18:25;;;;;;;0.47;0.28;;;13.60;99.90;;;;;;5075817;28;20359;-79
2022/05/11 02:20:51;;;;;;;0.50;0.30;;;13.60;99.90;;;;;;5075900;28;20031;-79
2022/05/11 02:23:19;;;;;;;0.70;0.30;;;13.60;99.90;;;;;;5074105;28;20345;-79
2022/05/11 02:25:46;;;;;;;0.90;0.30;;;13.60;99.90;;;;;;5075049;28;20029;-79
2022/05/11 02:28:13;;;;;;;0.80;0.30;;;13.60;99.90;;;;;;5073609;28;20020;-79
2022/05/11 02:30:40;;;;;;;0.38;0.22;;;13.60;99.90;;;;;;5075235;28;20104;-79
2022/05/11 02:33:06;;;;;;;0.55;0.25;;;13.70;99.90;;;;;;5073665;28;20057;-79
2022/05/11 02:35:33;;;;;;;0.38;0.20;;;13.60;99.90;;;;;;5056695;28;20032;-79
2022/05/11 02:38:01;;;;;;;0.45;0.20;;;13.60;99.90;;;;;;5073291;28;20025;-79
2022/05/11 02:40:34;;;;;;;0.20;0.20;;;13.70;99.90;;;;;;5073482;28;20024;-78
2022/05/11 02:43:03;;;;;;;0.43;0.20;;;13.60;99.90;;;;;;5074465;28;20434;-79
2022/05/11 02:45:31;;;;;;;0.68;0.30;;;13.70;99.90;;;;;;5074297;28;20542;-79
2022/05/11 02:47:56;;;;;;;0.35;0.20;;;13.70;99.90;;;;;;5073472;28;20059;-79
2022/05/11 02:50:28;;;;;;;0.38;0.20;;;13.70;99.90;;;;;;5074921;28;20037;-79
2022/05/11 02:52:54;;;;;;;0.28;0.20;;;13.60;99.90;;;;;;5074902;28;20086;-79
2022/05/11 02:55:21;;;;;;;0.40;0.20;;;13.70;99.90;;;;;;5073947;28;20036;-79
2022/05/11 02:57:46;;;;;;;0.35;0.20;;;13.70;99.90;;;;;;5074649;28;20071;-78
2022/05/11 03:00:15;;;;;;;0.28;0.20;;;13.70;99.90;;;;;;5073830;28;20199;-78
2022/05/11 03:02:41;;;;;;;0.47;0.20;;;13.70;99.90;;;;;;5074605;28;20447;-78
2022/05/11 03:05:07;;;;;;;0.70;0.30;;;13.70;99.90;;;;;;5074324;28;20082;-78
2022/05/11 03:07:32;;;;;;;0.57;0.20;;;13.70;99.90;;;;;;5072582;28;20032;-79
2022/05/11 03:09:58;;;;;;;0.75;0.30;;;13.70;99.90;;;;;;5072763;28;20457;-78
2022/05/11 03:12:24;;;;;;;0.50;0.20;;;13.70;99.90;;;;;;5072922;28;20127;-79
2022/05/11 03:14:53;;;;;;;0.68;0.30;;;13.70;99.90;;;;;;5074264;28;20038;-78
2022/05/11 03:17:19;;;;;;;0.73;0.50;;;13.70;99.90;;;;;;5073043;28;20490;-80
2022/05/11 03:19:45;;;;;;;0.38;0.20;;;13.70;99.90;;;;;;5073206;28;20357;-79
2022/05/11 03:22:11;;;;;;;0.35;0.20;;;13.70;99.90;;;;;;5072875;28;20025;-79
2022/05/11 03:24:37;;;;;;;0.77;0.30;;;13.70;99.90;;;;;;5072693;28;20033;-79
2022/05/11 03:27:03;;;;;;;0.20;0.20;;;13.70;99.90;;;;;;5073053;28;20124;-78
2022/05/11 03:29:28;;;;;;;0.63;0.30;;;13.80;99.90;;;;;;5074479;28;20469;-79
2022/05/11 03:34:39;;;;;;;0.20;0.20;;;13.80;99.90;;;;;;5075098;28;20110;-78
2022/05/11 03:37:14;;;;;;;0.40;0.20;;;13.80;99.90;;;;;;5074478;28;20028;-78
2022/05/11 03:39:41;;;;;;;0.35;0.20;;;13.80;99.90;;;;;;5074452;28;20031;-79
2022/05/11 03:42:11;;;;;;;0.77;0.30;;;13.80;99.90;;;;;;5074564;28;20025;-78
2022/05/11 03:44:36;;;;;;;0.30;0.30;;;13.80;99.90;;;;;;5074419;28;20024;-79
2022/05/11 03:47:02;;;;;;;0.35;0.20;;;13.80;99.90;;;;;;5056332;28;20094;-80
2022/05/11 03:49:28;;;;;;;0.20;0.20;;;13.80;99.90;;;;;;5055907;28;20030;-78
2022/05/11 03:51:54;;;;;;;0.47;0.30;;;13.80;99.90;;;;;;5073122;28;20460;-79
2022/05/11 03:54:20;;;;;;;0.82;0.30;;;13.80;99.90;;;;;;5072645;28;20082;-79
2022/05/11 03:56:46;;;;;;;0.28;0.20;;;13.80;99.90;;;;;;5073815;28;20092;-79
2022/05/11 03:59:11;;;;;;;0.43;0.25;;;13.80;99.90;;;;;;5055898;28;20036;-79
2022/05/11 04:01:37;;;;;;;0.50;0.28;;;13.80;99.90;;;;;;5072898;28;20029;-78
2022/05/11 04:04:04;;;;;;;0.45;0.20;;;13.80;99.90;;;;;;5074941;28;20033;-79
2022/05/11 04:06:29;;;;;;;0.65;0.30;;;13.80;99.90;;;;;;5074645;28;20107;-79
2022/05/11 04:08:55;;;;;;;0.30;0.20;;;13.80;99.90;;;;;;5072758;28;20086;-79
2022/05/11 04:11:22;;;;;;;1.08;0.50;;;13.80;99.90;;;;;;5073894;28;20436;-79
2022/05/11 04:13:49;;;;;;;0.90;0.50;;;13.80;99.90;;;;;;5072375;28;20141;-80
2022/05/11 04:16:16;;;;;;;0.85;0.43;;;13.80;99.90;;;;;;5071699;28;20044;-81
2022/05/11 04:18:42;;;;;;;0.40;0.20;;;13.80;99.90;;;;;;5073595;28;20029;-79
2022/05/11 04:21:09;;;;;;;0.93;0.30;;;13.80;99.90;;;;;;5072209;28;20129;-80
2022/05/11 04:23:35;;;;;;;0.98;0.35;;;13.80;99.90;;;;;;5076644;28;20038;-80
2022/05/11 04:26:00;;;;;;;0.30;0.20;;;13.80;99.90;;;;;;5058211;28;20119;-81
2022/05/11 04:28:26;;;;;;;0.20;0.20;;;13.90;99.90;;;;;;5075130;28;20494;-80
2022/05/11 04:31:01;;;;;;;0.30;0.20;;;13.90;99.90;;;;;;5075539;28;20100;-79
2022/05/11 04:33:27;;;;;;;0.70;0.30;;;13.90;99.90;;;;;;5080331;28;20052;-78
2022/05/11 04:35:52;;;;;;;0.93;0.30;;;13.90;99.90;;;;;;5062561;28;20033;-78
2022/05/11 04:38:18;;;;;;;0.75;0.30;;;13.90;99.90;;;;;;5076619;28;20350;-78
2022/05/11 04:40:44;;;;;;;0.50;0.30;;;13.90;99.90;;;;;;5075937;28;20097;-78
2022/05/11 04:43:10;;;;;;;0.60;0.20;;;13.90;99.90;;;;;;5079296;28;20032;-80
2022/05/11 04:45:41;;;;;;;0.68;0.30;;;14.00;99.90;;;;;;5065916;28;20032;-79
2022/05/11 04:48:07;;;;;;;0.50;0.28;;;13.90;99.90;;;;;;5077489;28;20434;-78
2022/05/11 04:50:33;;;;;;;0.38;0.20;;;14.00;99.90;;;;;;5077307;28;20064;-79
2022/05/11 04:52:59;;;;;;;0.35;0.20;;;14.00;99.90;;;;;;5077290;28;20025;-81
2022/05/11 04:55:24;;;;;;;0.28;0.20;;;14.00;99.90;;;;;;5058715;28;20101;-79
2022/05/11 04:57:50;;;;;;;0.40;0.20;;;14.00;99.90;;;;;;5075468;28;20025;-79
2022/05/11 05:00:16;;;;;;;0.47;0.20;;;14.00;99.90;;;;;;5076756;28;20029;-78
2022/05/11 05:02:42;;;;;;;0.73;0.30;;;14.00;99.90;;;;;;5077592;28;20099;-78
2022/05/11 05:05:10;;;;;;;0.30;0.20;;;14.00;99.90;;;;;;5076767;28;20107;-78
2022/05/11 05:07:36;;;;;;;0.30;0.20;;;14.10;99.90;;;;;;5075599;28;20028;-78
2022/05/11 05:10:07;;;;;;;0.80;0.30;;;14.20;99.90;;;;;;5075469;28;20039;-78
2022/05/11 05:12:33;;;;;;;0.40;0.20;;;14.20;99.90;;;;;;5076776;28;20027;-78
2022/05/11 05:14:59;;;;;;;0.20;0.20;;;14.20;99.90;;;;;;5076610;28;20082;-78
2022/05/11 05:17:25;;;;;;;0.73;0.30;;;14.20;99.90;;;;;;5077155;28;20037;-78
2022/05/11 05:19:51;;;;;;;0.45;0.20;;;14.20;99.90;;;;;;5076877;28;20083;-78
2022/05/11 05:22:17;;;;;;;0.55;0.30;;;14.30;99.90;;;;;;5075998;28;20075;-78
2022/05/11 05:24:44;;;;;;;0.22;0.20;;;14.30;99.90;;;;;;5077102;28;20064;-78
2022/05/11 05:27:15;;;;;;;0.80;0.30;;;14.40;99.90;;;;;;5075979;28;20031;-78
2022/05/11 05:32:25;;;;;;;0.43;0.20;;;14.50;99.90;;;;;;5076294;28;20480;-78
2022/05/11 05:34:51;;;;;;;0.82;0.30;;;14.60;99.90;;;;;;5075964;28;20036;-78
2022/05/11 05:37:17;;;;;;;0.40;0.20;;;14.60;99.90;;;;;;5075821;28;20464;-79
2022/05/11 05:39:46;;;;;;;0.60;0.30;;;14.70;99.90;;;;;;5075888;28;20036;-78
2022/05/11 05:42:19;;;;;;;0.40;0.20;;;14.80;99.90;;;;;;5074681;28;20552;-77
2022/05/11 05:44:45;;;;;;;0.28;0.20;;;14.80;99.90;;;;;;5074387;28;20447;-79
2022/05/11 05:47:11;;;;;;;0.20;0.20;;;14.90;99.90;;;;;;5075453;28;20025;-78
2022/05/11 05:49:38;;;;;;;0.40;0.20;;;14.90;99.90;;;;;;5074257;28;20037;-79
2022/05/11 05:52:04;;;;;;;0.70;0.30;;;14.90;99.90;;;;;;5075668;28;20021;-79
2022/05/11 05:54:34;;;;;;;0.90;0.30;;;14.90;99.90;;;;;;5074280;28;20365;-78
2022/05/11 05:57:00;;;;;;;0.30;0.20;;;14.90;99.90;;;;;;5075385;28;20036;-78
2022/05/11 05:59:26;;;;;;;0.57;0.20;;;14.90;99.90;;;;;;5076190;28;20028;-78
2022/05/11 06:01:52;;;;;;;0.38;0.20;;;14.90;99.90;;;;;;5076218;28;20043;-78
2022/05/11 06:04:17;;;;;;;0.57;0.20;;;14.90;99.90;;;;;;5074358;28;20051;-78
2022/05/11 06:06:43;;;;;;;0.65;0.28;;;14.90;99.90;;;;;;5075834;28;20444;-78
2022/05/11 06:09:09;;;;;;;0.60;0.20;;;14.90;99.90;;;;;;5076360;28;20029;-78
2022/05/11 06:11:36;;;;;;;0.32;0.20;;;15.00;99.90;;;;;;5075949;28;20021;-78
2022/05/11 06:14:03;;;;;;;1.13;0.30;;;15.00;99.90;;;;;;5074718;28;20129;-77
2022/05/11 06:16:28;;;;;;;0.57;0.28;;;14.90;99.90;;;;;;5075003;28;20032;-78
2022/05/11 06:18:54;;;;;;;0.57;0.20;;;15.00;99.90;;;;;;5076538;28;20383;-78
2022/05/11 06:21:20;;;;;;;0.57;0.22;;;15.10;99.90;;;;;;5076425;28;20021;-78
2022/05/11 06:23:46;;;;;;;0.50;0.20;;;15.10;99.90;;;;;;5075941;28;20027;-80
2022/05/11 06:26:12;;;;;;;0.57;0.30;;;15.20;99.90;;;;;;5075835;28;20028;-78
2022/05/11 06:28:40;;;;;;;0.50;0.20;;;15.20;99.90;;;;;;5074063;28;20029;-78
2022/05/11 06:31:10;;;;;;;0.38;0.20;;;15.30;99.90;;;;;;5074963;28;20036;-78
2022/05/11 06:33:35;;;;;;;0.30;0.20;;;15.40;99.90;;;;;;5073285;28;20057;-79
2022/05/11 06:36:03;;;;;;;0.47;0.20;;;15.50;99.90;;;;;;5074579;28;20123;-78
2022/05/11 06:38:29;;;;;;;0.30;0.20;;;15.70;99.90;;;;;;5074904;28;20037;-78
2022/05/11 06:40:54;;;;;;;0.50;0.20;;;15.80;99.90;;;;;;5073224;28;20029;-78
2022/05/11 06:43:20;;;;;;;0.32;0.20;;;15.90;99.90;;;;;;5073036;28;20039;-77
2022/05/11 06:45:45;;;;;;;0.68;0.30;;;15.90;99.90;;;;;;5074102;28;20051;-77
2022/05/11 06:48:14;;;;;;;1.33;0.40;;;16.00;99.90;;;;;;5074187;28;20517;-78
2022/05/11 06:50:42;;;;;;;0.68;0.20;;;16.10;99.90;;;;;;5056977;28;20460;-80
2022/05/11 06:53:10;;;;;;;0.17;0.10;;;16.20;99.90;;;;;;5074285;28;20021;-80
2022/05/11 07:01:15;;;;;;;0.35;0.20;;;16.30;99.90;;;;;;5056220;28;20468;-79
2022/05/11 07:03:41;;;;;;;1.58;0.82;;;16.30;99.90;;;;;;5078131;28;20024;-78
2022/05/11 07:06:07;;;;;;;0.17;0.10;;;16.40;99.90;;;;;;5057804;28;20028;-79
2022/05/11 07:08:37;;;;;;;0.93;0.30;;;16.50;99.90;;;;;;5057187;28;20153;-80
2022/05/11 07:13:48;;;;;;;0.47;0.20;;;16.60;99.90;;;;;;5075189;28;20055;-79
2022/05/11 07:16:15;;;;;;;0.43;0.10;;;17.00;99.90;;;;;;5074356;28;20468;-80
2022/05/11 07:18:41;;;;;;;0.30;0.10;;;17.20;99.90;;;;;;5075642;28;20096;-81
2022/05/11 07:21:07;;;;;;;0.95;0.35;;;17.20;99.90;;;;;;5074689;28;20029;-81
2022/05/11 07:23:33;;;;;;;1.23;0.40;;;17.10;99.90;;;;;;5073849;28;20021;-81
2022/05/11 07:25:59;;;;;;;0.30;0.10;;;17.20;99.90;;;;;;5075771;28;20037;-80
2022/05/11 07:28:25;;;;;;;0.63;0.20;;;17.10;99.90;;;;;;5074864;28;20551;-80
2022/05/11 07:30:51;;;;;;;0.57;0.20;;;17.10;99.90;;;;;;5074450;28;20040;-80
2022/05/11 07:33:17;;;;;;;0.38;0.20;;;17.10;99.90;;;;;;5076228;28;20064;-79
2022/05/11 07:35:44;;;;;;;1.02;0.55;;;17.10;99.90;;;;;;5076621;28;20040;-80
2022/05/11 07:38:12;;;;;;;0.52;0.20;;;17.10;99.90;;;;;;5075810;28;20024;-80
2022/05/11 07:40:39;;;;;;;0.28;0.10;;;17.20;99.90;;;;;;5076068;28;20032;-81
2022/05/11 07:43:06;;;;;;;0.10;0.10;;;17.80;99.90;;;;;;5075195;28;20051;-81
2022/05/11 07:45:32;;;;;;;0.88;0.30;;;18.50;99.90;;;;;;5073190;28;20387;-81
2022/05/11 07:47:57;;;;;;;1.10;0.30;;;18.50;99.90;;;;;;5073983;28;20021;-81
2022/05/11 07:50:23;;;;;;;0.28;0.10;;;18.30;99.90;;;;;;5075598;28;20051;-80
2022/05/11 07:52:49;;;;;;;0.28;0.10;;;17.90;99.90;;;;;;5074490;28;20037;-79
2022/05/11 07:55:19;;;;;;;0.28;0.10;;;17.80;99.90;;;;;;5073715;28;20442;-81
2022/05/11 08:00:28;;;;;;;0.17;0.10;;;17.70;99.90;;;;;;5075581;28;20042;-81
2022/05/11 08:02:54;;;;;;;0.10;0.10;;;17.60;99.90;;;;;;5075540;28;20100;-81
2022/05/11 08:05:21;;;;;;;0.47;0.20;;;18.00;99.90;;;;;;5075231;28;20458;-81
2022/05/11 08:07:52;;;;;;;0.10;0.10;;;18.80;99.90;;;;;;5076763;28;20032;-81
2022/05/11 08:10:22;;;;;;;0.52;0.20;;;18.70;99.90;;;;;;5078432;28;20089;-81
2022/05/11 08:12:49;;;;;;;0.28;0.10;;;19.70;99.90;;;;;;5077552;28;20481;-81
2022/05/11 08:15:16;;;;;;;0.47;0.20;;;20.00;99.90;;;;;;5078221;28;20033;-81
2022/05/11 08:17:43;;;;;;;0.10;0.10;;;20.30;99.30;;;;;;5077978;28;20024;-82
2022/05/11 08:20:14;;;;;;;0.30;0.10;;;20.40;97.60;;;;;;5076869;28;20036;-81
2022/05/11 08:22:41;;;;;;;0.32;0.10;;;20.40;99.90;;;;;;5078551;28;20017;-81
2022/05/11 08:25:07;;;;;;;0.10;0.10;;;21.10;99.90;;;;;;5045955;28;20451;-81
2022/05/11 08:27:33;;;;;;;0.10;0.10;;;21.20;94.40;;;;;;5078593;28;20091;-81
2022/05/11 08:35:28;;;;;;;0.35;0.10;;;21.70;86.60;;;;;;5078001;28;20096;-81
2022/05/11 08:37:55;;;;;;;0.10;0.10;;;21.70;82.40;;;;;;5078197;28;20024;-79
2022/05/11 08:40:39;;;;;;;0.10;0.10;;;21.40;77.80;;;;;;5078547;28;20021;-79
2022/05/11 08:43:10;;;;;;;0.17;0.10;;;21.30;83.40;;;;;;5077751;28;20020;-80
2022/05/11 08:45:44;;;;;;;0.10;0.10;;;21.50;80.90;;;;;;5079218;28;20028;-80
2022/05/11 08:48:38;;;;;;;0.10;0.10;;;21.40;84.50;;;;;;5079311;28;20021;-80
2022/05/11 08:51:09;;;;;;;0.10;0.10;;;21.50;85.60;;;;;;5077936;28;20024;-80
2022/05/11 08:53:40;;;;;;;0.10;0.10;;;21.90;82.10;;;;;;5077974;28;20024;-79
2022/05/11 08:56:15;;;;;;;1.65;0.30;;;21.90;84.00;;;;;;5077510;28;20488;-79
2022/05/11 08:58:52;;;;;;;0.45;0.45;;;22.10;84.70;;;;;;5078740;28;20021;-79
2022/05/11 09:02:03;;;;;;;0.00;0.00;;;22.20;77.50;;;;;;5077589;28;20376;-79
2022/05/11 09:04:53;;;;;;;0.15;0.10;;;22.10;79.00;;;;;;5078047;28;20062;-81
2022/05/11 09:07:20;;;;;;;0.10;0.10;;;21.70;78.80;;;;;;5079194;28;20025;-83
2022/05/11 09:09:46;;;;;;;0.20;0.10;;;21.80;77.50;;;;;;5079368;28;20023;-78
2022/05/11 09:12:13;;;;;;;0.10;0.10;;;21.80;76.30;;;;;;5090770;28;20107;-81
2022/05/11 09:14:42;;;;;;;0.00;0.00;;;22.50;88.80;;;;;;5097506;28;20021;-82
2022/05/11 09:17:36;;;;;;;0.17;0.10;;;23.00;76.50;;;;;;5099287;28;20009;-83
2022/05/11 09:20:05;;;;;;;0.17;0.10;;;22.50;75.10;;;;;;5098633;28;20029;-82
2022/05/11 09:22:33;;;;;;;0.17;0.10;;;22.50;70.60;;;;;;5098919;28;20033;-84
2022/05/11 09:25:13;;;;;;;0.10;0.10;;;22.40;68.10;;;;;;5098433;28;20048;-83
2022/05/11 09:27:39;;;;;;;0.17;0.10;;;22.60;68.90;;;;;;5098761;28;20005;-82
2022/05/11 09:30:24;;;;;;;0.17;0.10;;;22.40;70.20;;;;;;5065444;28;20023;-82
2022/05/11 09:32:54;;;;;;;0.10;0.10;;;22.40;72.70;;;;;;5099743;28;20063;-82
2022/05/11 09:35:36;;;;;;;0.55;0.38;;;22.70;68.60;;;;;;5098933;28;20041;-83
2022/05/11 09:38:21;;;;;;;0.10;0.10;;;22.80;66.60;;;;;;5098655;28;20040;-82
2022/05/11 09:40:56;;;;;;;0.10;0.10;;;23.40;66.00;;;;;;5099426;28;20013;-83
2022/05/11 09:43:56;;;;;;;0.43;0.20;;;23.30;60.70;;;;;;5098109;28;20055;-78
2022/05/11 09:46:32;;;;;;;0.17;0.10;;;23.20;59.70;;;;;;5063508;28;20079;-76
2022/05/11 09:49:05;;;;;;;0.10;0.10;;;23.00;58.40;;;;;;5097743;28;20021;-76
2022/05/11 09:51:42;;;;;;;0.10;0.10;;;23.30;57.40;;;;;;5086027;28;20031;-76
2022/05/11 09:54:33;;;;;;;0.10;0.10;;;23.10;57.60;;;;;;5082651;28;20027;-76
2022/05/11 09:57:27;;;;;;;0.10;0.10;;;23.00;57.60;;;;;;5090295;28;20032;-76
2022/05/11 10:00:14;;;;;;;0.00;0.00;;;23.00;56.30;;;;;;5088040;28;20058;-76
2022/05/11 10:02:43;;;;;;;0.20;0.10;;;23.10;56.20;;;;;;5098010;28;20025;-80
2022/05/11 10:05:17;;;;;;;0.10;0.10;;;22.90;54.90;;;;;;5097920;28;20021;-82
2022/05/11 10:07:49;;;;;;;2.13;0.68;;;22.60;55.80;;;;;;5097516;28;20009;-78
2022/05/11 10:10:33;;;;;;;0.20;0.10;;;22.40;56.80;;;;;;5098279;28;20015;-79
2022/05/11 10:13:11;;;;;;;0.25;0.10;;;22.70;57.50;;;;;;5097252;28;20021;-79
2022/05/11 10:24:16;;;;;;;0.30;0.20;;;23.60;53.90;;;;;;5091584;28;20043;-79
2022/05/11 10:27:00;;;;;;;0.22;0.10;;;23.00;56.60;;;;;;5096337;28;20093;-79
2022/05/11 10:29:37;;;;;;;0.10;0.10;;;22.70;56.40;;;;;;5093025;28;20024;-80
2022/05/11 10:32:24;;;;;;;0.10;0.10;;;22.60;59.20;;;;;;5077048;28;20028;-80
2022/05/11 10:35:04;;;;;;;0.10;0.10;;;22.90;57.60;;;;;;5075453;28;20053;-80
2022/05/11 10:37:53;;;;;;;0.00;0.00;;;23.30;57.50;;;;;;5075638;28;20039;-79
2022/05/11 10:40:36;;;;;;;0.10;0.10;;;23.00;58.30;;;;;;5075862;28;20263;-79
2022/05/11 10:43:40;;;;;;;0.00;0.00;;;23.10;59.20;;;;;;5086353;28;20030;-82
2022/05/11 10:46:22;;;;;;;0.00;0.00;;;23.00;58.80;;;;;;5025302;28;20041;-80
2022/05/11 10:49:13;;;;;;;0.00;0.00;;;24.30;59.80;;;;;;5076104;28;20113;-87
2022/05/11 10:52:25;;;;;;;0.00;0.00;;;24.90;55.60;;;;;;5068352;28;20024;-78
2022/05/11 10:54:59;;;;;;;0.00;0.00;;;25.00;54.90;;;;;;5075884;28;20440;-79
2022/05/11 10:58:03;;;;;;;0.00;0.00;;;24.60;53.00;;;;;;5074945;28;20095;-77
2022/05/11 11:00:34;;;;;;;0.00;0.00;;;24.80;53.50;;;;;;5075323;28;20064;-84
2022/05/11 11:03:25;;;;;;;0.17;0.10;;;25.10;54.00;;;;;;5075191;28;20376;-82
2022/05/11 11:09:06;;;;;;;0.10;0.10;;;25.20;54.10;;;;;;5075974;28;20250;-89
2022/05/11 11:12:03;;;;;;;0.00;0.00;;;25.50;53.80;;;;;;5075823;28;20024;-91
2022/05/11 11:14:36;;;;;;;0.00;0.00;;;25.80;53.10;;;;;;5074951;28;20063;-80
2022/05/11 11:17:09;;;;;;;0.30;0.30;;;25.90;53.40;;;;;;5076698;28;20044;-85
2022/05/11 11:19:36;;;;;;;0.00;0.00;;;25.30;51.40;;;;;;5075496;28;20045;-83
2022/05/11 11:22:05;;;;;;;0.17;0.10;;;25.40;53.50;;;;;;5074571;28;20036;-84
2022/05/11 11:24:32;;;;;;;0.20;0.10;;;25.10;54.90;;;;;;5072983;28;20048;-84
2022/05/11 11:27:01;;;;;;;0.03;0.03;;;25.00;54.00;;;;;;5056447;28;20029;-84
2022/05/11 11:29:34;;;;;;;0.00;0.00;;;25.80;53.90;;;;;;5072764;28;20025;-84
2022/05/11 11:32:03;;;;;;;0.10;0.10;;;25.60;51.40;;;;;;5072994;28;20055;-83
2022/05/11 11:34:31;;;;;;;0.00;0.00;;;25.70;52.00;;;;;;5074584;28;20044;-83
2022/05/11 11:36:59;;;;;;;0.08;0.08;;;24.90;49.40;;;;;;5072744;28;20024;-83
2022/05/11 11:40:06;;;;;;;0.00;0.00;;;25.10;52.00;;;;;;5072407;28;20012;-84
2022/05/11 11:42:41;;;;;;;0.00;0.00;;;25.10;52.20;;;;;;5071426;28;20442;-83
2022/05/11 11:45:10;;;;;;;0.00;0.00;;;25.00;51.90;;;;;;5072763;28;20027;-83
2022/05/11 11:47:40;;;;;;;0.00;0.00;;;25.10;51.70;;;;;;5072895;28;20017;-83
2022/05/11 11:50:12;;;;;;;0.47;0.45;;;24.50;51.60;;;;;;5073601;28;20052;-83
2022/05/11 11:52:43;;;;;;;0.00;0.00;;;24.40;52.80;;;;;;5073950;28;20028;-83
2022/05/11 11:55:18;;;;;;;;;;;24.50;51.60;;;;;;5072798;28;20024;-83
2022/05/11 11:57:48;;;;;;;0.30;0.10;;;24.70;52.30;;;;;;5072405;28;19909;-83
2022/05/11 12:00:29;;;;;;;0.10;0.10;;;25.30;52.30;;;;;;5073695;28;20025;-83
2022/05/11 12:02:55;;;;;;;0.00;0.00;;;25.40;51.90;;;;;;5074085;28;20024;-83
2022/05/11 12:05:45;;;;;;;0.10;0.10;;;25.20;51.90;;;;;;5072635;28;20434;-83
2022/05/11 12:16:56;;;;;;;0.00;0.00;;;26.00;51.10;;;;;;5073887;28;20070;-82
2022/05/11 12:19:29;;;;;;;0.00;0.00;;;26.50;50.70;;;;;;5072605;28;20056;-82
2022/05/11 12:22:19;;;;;;;0.55;0.20;;;26.10;50.70;;;;;;5073343;28;20059;-83
2022/05/11 12:24:48;;;;;;;0.00;0.00;;;26.50;50.50;;;;;;5073280;28;20024;-84
2022/05/11 12:27:24;;;;;;;0.00;0.00;;;26.40;49.80;;;;;;5073105;28;20464;-82
2022/05/11 12:29:54;;;;;;;0.10;0.05;;;26.20;49.30;;;;;;5073329;28;20024;-81
2022/05/11 12:32:25;;;;;;;;;;;26.30;48.90;;;;;;5073821;28;20025;-82
2022/05/11 12:34:51;;;;;;;0.20;0.10;;;25.90;49.60;;;;;;5073458;28;19956;-82
2022/05/11 12:37:28;;;;;;;0.10;0.10;;;26.20;50.50;;;;;;5072916;28;20028;-81
2022/05/11 12:40:15;;;;;;;0.00;0.00;;;25.60;48.50;;;;;;5072982;28;20071;-81
2022/05/11 12:42:44;;;;;;;0.10;0.10;;;25.30;50.10;;;;;;5073380;28;20029;-79
2022/05/11 12:45:25;;;;;;;0.28;0.20;;;25.80;50.00;;;;;;5072046;28;20458;-80
2022/05/11 12:47:56;;;;;;;0.10;0.10;;;25.20;49.10;;;;;;5073186;28;20012;-80
2022/05/11 12:50:30;;;;;;;0.00;0.00;;;25.00;49.60;;;;;;5072342;28;20483;-81
2022/05/11 12:53:17;;;;;;;1.98;0.52;;;25.20;50.50;;;;;;5074378;28;20024;-82
2022/05/11 12:56:05;;;;;;;0.10;0.10;;;24.90;50.50;;;;;;5075452;28;20468;-80
2022/05/11 12:58:31;;;;;;;0.10;0.10;;;25.00;51.00;;;;;;5076195;28;20033;-81
2022/05/11 13:01:03;;;;;;;0.10;0.08;;;24.90;50.40;;;;;;5076664;28;20028;-80
2022/05/11 13:03:37;;;;;;;0.00;0.00;;;24.50;51.90;;;;;;5076022;28;20021;-80
2022/05/11 13:06:10;;;;;;;1.75;0.50;;;24.30;51.30;;;;;;5077246;28;20469;-80
2022/05/11 13:08:46;;;;;;;0.10;0.10;;;24.30;50.80;;;;;;5075651;28;20031;-79
2022/05/11 13:11:15;;;;;;;0.00;0.00;;;24.80;51.10;;;;;;5075719;28;20107;-83
2022/05/11 13:13:45;;;;;;;0.10;0.10;;;25.20;52.40;;;;;;5076593;28;20021;-80
2022/05/11 13:16:22;;;;;;;0.10;0.10;;;24.70;52.50;;;;;;5080782;28;20042;-78
2022/05/11 13:18:49;;;;;;;0.10;0.10;;;24.50;52.90;;;;;;5078561;28;20095;-78
2022/05/11 13:21:32;;;;;;;0.22;0.20;;;24.80;53.30;;;;;;5081379;28;20025;-79
2022/05/11 13:23:58;;;;;;;0.30;0.20;;;24.50;52.90;;;;;;5079191;28;20142;-79
2022/05/11 13:26:37;;;;;;;0.10;0.10;;;24.10;53.00;;;;;;5059997;28;20063;-79
2022/05/11 13:29:32;;;;;;;0.00;0.00;;;24.60;54.00;;;;;;5077109;28;20074;-81
2022/05/11 13:32:00;;;;;;;0.10;0.10;;;24.70;53.30;;;;;;5057737;28;20032;-81
2022/05/11 13:34:40;;;;;;;0.00;0.00;;;24.70;52.80;;;;;;5076655;28;20064;-81
2022/05/11 13:37:23;;;;;;;0.10;0.10;;;24.70;52.40;;;;;;5078034;28;20025;-82
2022/05/11 13:39:50;;;;;;;0.10;0.10;;;24.60;53.40;;;;;;5076162;28;20100;-81
2022/05/11 13:42:26;;;;;;;0.00;0.00;;;24.80;53.20;;;;;;5075519;28;20029;-81
2022/05/11 13:44:53;;;;;;;0.10;0.10;;;24.20;53.00;;;;;;5074991;28;20070;-81
2022/05/11 13:50:45;;;;;;;0.03;0.03;;;24.10;53.40;;;;;;5076486;28;20035;-81
2022/05/11 13:53:11;;;;;;;0.20;0.20;;;24.50;54.70;;;;;;5075801;28;20095;-82
2022/05/11 13:55:40;;;;;;;0.03;0.03;;;24.30;53.80;;;;;;5074334;28;20120;-82
2022/05/11 13:58:23;;;;;;;0.10;0.10;;;24.30;53.30;;;;;;5075311;28;20447;-82